sensor_id;sensor_type;location;lat;lon;timestamp;P1;durP1;ratioP1;P2;durP2;ratioP2
18651;SDS011;9455;54.302;10.124;2023-09-18T00:01:26;8.17;;;6.17;;
18651;SDS011;9455;54.302;10.124;2023-09-18T00:03:53;10.53;;;6.40;;
18651;SDS011;9455;54.302;10.124;2023-09-18T00:06:20;9.80;;;6.40;;
18651;SDS011;9455;54.302;10.124;2023-09-18T00:08:48;9.80;;;5.73;;
18651;SDS011;9455;54.302;10.124;2023-09-18T00:11:16;11.73;;;6.00;;
18651;SDS011;9455;54.302;10.124;2023-09-18T00:13:44;9.60;;;6.50;;
18651;SDS011;9455;54.302;10.124;2023-09-18T00:16:10;12.20;;;6.90;;
18651;SDS011;9455;54.302;10.124;2023-09-18T00:18:38;12.10;;;6.70;;
18651;SDS011;9455;54.302;10.124;2023-09-18T00:21:04;13.13;;;5.73;;
18651;SDS011;9455;54.302;10.124;2023-09-18T00:23:31;7.93;;;5.80;;
18651;SDS011;9455;54.302;10.124;2023-09-18T00:26:00;7.97;;;6.17;;
18651;SDS011;9455;54.302;10.124;2023-09-18T00:28:26;10.83;;;6.23;;
18651;SDS011;9455;54.302;10.124;2023-09-18T00:30:54;13.23;;;6.53;;
18651;SDS011;9455;54.302;10.124;2023-09-18T00:33:21;8.50;;;6.13;;
18651;SDS011;9455;54.302;10.124;2023-09-18T00:35:48;13.87;;;6.10;;
18651;SDS011;9455;54.302;10.124;2023-09-18T00:38:15;8.40;;;6.03;;
18651;SDS011;9455;54.302;10.124;2023-09-18T00:40:42;9.40;;;6.30;;
18651;SDS011;9455;54.302;10.124;2023-09-18T00:43:09;13.67;;;5.70;;
18651;SDS011;9455;54.302;10.124;2023-09-18T00:45:38;11.53;;;5.87;;
18651;SDS011;9455;54.302;10.124;2023-09-18T00:48:08;11.93;;;5.53;;
18651;SDS011;9455;54.302;10.124;2023-09-18T00:50:36;14.13;;;5.93;;
18651;SDS011;9455;54.302;10.124;2023-09-18T00:53:03;15.43;;;6.53;;
18651;SDS011;9455;54.302;10.124;2023-09-18T00:55:31;8.10;;;5.60;;
18651;SDS011;9455;54.302;10.124;2023-09-18T00:57:58;13.10;;;6.60;;
18651;SDS011;9455;54.302;10.124;2023-09-18T01:00:25;11.53;;;6.33;;
18651;SDS011;9455;54.302;10.124;2023-09-18T01:02:51;11.10;;;6.30;;
18651;SDS011;9455;54.302;10.124;2023-09-18T01:05:19;8.23;;;5.73;;
18651;SDS011;9455;54.302;10.124;2023-09-18T01:07:46;11.20;;;6.53;;
18651;SDS011;9455;54.302;10.124;2023-09-18T01:10:13;11.93;;;6.43;;
18651;SDS011;9455;54.302;10.124;2023-09-18T01:12:44;8.83;;;6.07;;
18651;SDS011;9455;54.302;10.124;2023-09-18T01:15:17;12.90;;;6.60;;
18651;SDS011;9455;54.302;10.124;2023-09-18T01:17:48;12.63;;;5.97;;
18651;SDS011;9455;54.302;10.124;2023-09-18T01:20:14;11.43;;;6.30;;
18651;SDS011;9455;54.302;10.124;2023-09-18T01:22:42;11.50;;;5.93;;
18651;SDS011;9455;54.302;10.124;2023-09-18T01:25:09;8.03;;;5.83;;
18651;SDS011;9455;54.302;10.124;2023-09-18T01:27:36;12.40;;;6.83;;
18651;SDS011;9455;54.302;10.124;2023-09-18T01:30:03;10.90;;;6.60;;
18651;SDS011;9455;54.302;10.124;2023-09-18T01:32:31;11.83;;;6.23;;
18651;SDS011;9455;54.302;10.124;2023-09-18T01:34:59;10.80;;;6.40;;
18651;SDS011;9455;54.302;10.124;2023-09-18T01:37:30;10.47;;;5.70;;
18651;SDS011;9455;54.302;10.124;2023-09-18T01:39:58;9.50;;;6.13;;
18651;SDS011;9455;54.302;10.124;2023-09-18T01:42:25;13.33;;;6.30;;
18651;SDS011;9455;54.302;10.124;2023-09-18T01:44:53;11.50;;;6.33;;
18651;SDS011;9455;54.302;10.124;2023-09-18T01:47:21;16.97;;;6.40;;
18651;SDS011;9455;54.302;10.124;2023-09-18T01:49:49;86.57;;;30.90;;
18651;SDS011;9455;54.302;10.124;2023-09-18T01:52:16;48.33;;;18.63;;
18651;SDS011;9455;54.302;10.124;2023-09-18T01:54:42;25.50;;;11.80;;
18651;SDS011;9455;54.302;10.124;2023-09-18T01:57:10;46.57;;;16.50;;
18651;SDS011;9455;54.302;10.124;2023-09-18T01:59:38;22.53;;;10.90;;
18651;SDS011;9455;54.302;10.124;2023-09-18T02:02:06;22.27;;;9.37;;
18651;SDS011;9455;54.302;10.124;2023-09-18T02:04:34;57.63;;;18.37;;
18651;SDS011;9455;54.302;10.124;2023-09-18T02:07:01;23.30;;;9.30;;
18651;SDS011;9455;54.302;10.124;2023-09-18T02:09:28;9.17;;;6.43;;
18651;SDS011;9455;54.302;10.124;2023-09-18T02:11:54;12.63;;;6.67;;
18651;SDS011;9455;54.302;10.124;2023-09-18T02:14:22;12.10;;;6.67;;
18651;SDS011;9455;54.302;10.124;2023-09-18T02:16:49;14.77;;;6.83;;
18651;SDS011;9455;54.302;10.124;2023-09-18T02:19:16;7.17;;;5.50;;
18651;SDS011;9455;54.302;10.124;2023-09-18T02:21:43;6.97;;;5.57;;
18651;SDS011;9455;54.302;10.124;2023-09-18T02:24:10;7.00;;;5.20;;
18651;SDS011;9455;54.302;10.124;2023-09-18T02:26:36;8.10;;;5.53;;
18651;SDS011;9455;54.302;10.124;2023-09-18T02:29:05;10.60;;;6.80;;
18651;SDS011;9455;54.302;10.124;2023-09-18T02:31:34;8.10;;;6.17;;
18651;SDS011;9455;54.302;10.124;2023-09-18T02:34:00;10.13;;;6.07;;
18651;SDS011;9455;54.302;10.124;2023-09-18T02:36:27;9.40;;;5.97;;
18651;SDS011;9455;54.302;10.124;2023-09-18T02:38:53;11.93;;;7.00;;
18651;SDS011;9455;54.302;10.124;2023-09-18T02:41:20;9.67;;;6.47;;
18651;SDS011;9455;54.302;10.124;2023-09-18T02:43:47;10.63;;;6.10;;
18651;SDS011;9455;54.302;10.124;2023-09-18T02:46:13;7.60;;;6.07;;
18651;SDS011;9455;54.302;10.124;2023-09-18T02:48:41;11.80;;;6.57;;
18651;SDS011;9455;54.302;10.124;2023-09-18T02:51:08;13.87;;;6.13;;
18651;SDS011;9455;54.302;10.124;2023-09-18T02:53:35;12.70;;;7.20;;
18651;SDS011;9455;54.302;10.124;2023-09-18T02:56:01;11.80;;;7.13;;
18651;SDS011;9455;54.302;10.124;2023-09-18T02:58:28;13.30;;;6.97;;
18651;SDS011;9455;54.302;10.124;2023-09-18T03:00:55;10.23;;;6.47;;
18651;SDS011;9455;54.302;10.124;2023-09-18T03:03:23;8.10;;;5.97;;
18651;SDS011;9455;54.302;10.124;2023-09-18T03:05:51;9.00;;;6.00;;
18651;SDS011;9455;54.302;10.124;2023-09-18T03:08:18;10.77;;;5.73;;
18651;SDS011;9455;54.302;10.124;2023-09-18T03:10:44;7.17;;;6.10;;
18651;SDS011;9455;54.302;10.124;2023-09-18T03:13:12;8.50;;;6.27;;
18651;SDS011;9455;54.302;10.124;2023-09-18T03:15:40;10.27;;;6.73;;
18651;SDS011;9455;54.302;10.124;2023-09-18T03:18:11;8.10;;;5.60;;
18651;SDS011;9455;54.302;10.124;2023-09-18T03:20:37;9.83;;;5.83;;
18651;SDS011;9455;54.302;10.124;2023-09-18T03:23:05;12.27;;;6.50;;
18651;SDS011;9455;54.302;10.124;2023-09-18T03:25:32;8.80;;;5.90;;
18651;SDS011;9455;54.302;10.124;2023-09-18T03:27:58;19.23;;;6.70;;
18651;SDS011;9455;54.302;10.124;2023-09-18T03:30:25;12.20;;;6.83;;
18651;SDS011;9455;54.302;10.124;2023-09-18T03:32:52;8.93;;;6.47;;
18651;SDS011;9455;54.302;10.124;2023-09-18T03:35:19;7.90;;;5.73;;
18651;SDS011;9455;54.302;10.124;2023-09-18T03:37:45;9.77;;;6.50;;
18651;SDS011;9455;54.302;10.124;2023-09-18T03:40:14;13.37;;;6.30;;
18651;SDS011;9455;54.302;10.124;2023-09-18T03:42:41;9.37;;;5.87;;
18651;SDS011;9455;54.302;10.124;2023-09-18T03:45:08;14.27;;;5.70;;
18651;SDS011;9455;54.302;10.124;2023-09-18T03:47:35;14.17;;;7.17;;
18651;SDS011;9455;54.302;10.124;2023-09-18T03:50:04;6.93;;;5.00;;
18651;SDS011;9455;54.302;10.124;2023-09-18T03:52:32;12.53;;;6.87;;
18651;SDS011;9455;54.302;10.124;2023-09-18T03:54:58;10.77;;;6.20;;
18651;SDS011;9455;54.302;10.124;2023-09-18T03:57:27;11.23;;;7.13;;
18651;SDS011;9455;54.302;10.124;2023-09-18T03:59:52;14.97;;;7.33;;
18651;SDS011;9455;54.302;10.124;2023-09-18T04:02:20;13.67;;;6.50;;
18651;SDS011;9455;54.302;10.124;2023-09-18T04:04:48;12.63;;;7.10;;
18651;SDS011;9455;54.302;10.124;2023-09-18T04:07:14;10.70;;;7.57;;
18651;SDS011;9455;54.302;10.124;2023-09-18T04:09:41;12.60;;;7.13;;
18651;SDS011;9455;54.302;10.124;2023-09-18T04:12:08;8.50;;;6.37;;
18651;SDS011;9455;54.302;10.124;2023-09-18T04:14:36;10.33;;;6.00;;
18651;SDS011;9455;54.302;10.124;2023-09-18T04:17:03;14.07;;;6.53;;
18651;SDS011;9455;54.302;10.124;2023-09-18T04:19:29;12.00;;;6.07;;
18651;SDS011;9455;54.302;10.124;2023-09-18T04:21:56;13.20;;;6.40;;
18651;SDS011;9455;54.302;10.124;2023-09-18T04:24:22;7.67;;;5.93;;
18651;SDS011;9455;54.302;10.124;2023-09-18T04:26:49;8.83;;;5.97;;
18651;SDS011;9455;54.302;10.124;2023-09-18T04:29:16;14.33;;;5.87;;
18651;SDS011;9455;54.302;10.124;2023-09-18T04:31:45;8.93;;;5.17;;
18651;SDS011;9455;54.302;10.124;2023-09-18T04:34:12;8.43;;;5.80;;
18651;SDS011;9455;54.302;10.124;2023-09-18T04:36:39;7.30;;;5.67;;
18651;SDS011;9455;54.302;10.124;2023-09-18T04:39:05;10.10;;;5.77;;
18651;SDS011;9455;54.302;10.124;2023-09-18T04:41:33;7.13;;;5.20;;
18651;SDS011;9455;54.302;10.124;2023-09-18T04:43:59;16.17;;;6.77;;
18651;SDS011;9455;54.302;10.124;2023-09-18T04:46:26;8.10;;;5.83;;
18651;SDS011;9455;54.302;10.124;2023-09-18T04:48:54;11.97;;;6.07;;
18651;SDS011;9455;54.302;10.124;2023-09-18T04:51:20;12.20;;;5.80;;
18651;SDS011;9455;54.302;10.124;2023-09-18T04:53:47;8.23;;;5.87;;
18651;SDS011;9455;54.302;10.124;2023-09-18T04:56:13;8.83;;;4.97;;
18651;SDS011;9455;54.302;10.124;2023-09-18T04:58:40;8.57;;;5.47;;
18651;SDS011;9455;54.302;10.124;2023-09-18T05:01:07;7.57;;;5.50;;
18651;SDS011;9455;54.302;10.124;2023-09-18T05:03:33;7.90;;;5.13;;
18651;SDS011;9455;54.302;10.124;2023-09-18T05:06:02;10.83;;;5.43;;
18651;SDS011;9455;54.302;10.124;2023-09-18T05:08:29;7.43;;;5.17;;
18651;SDS011;9455;54.302;10.124;2023-09-18T05:10:56;9.07;;;6.27;;
18651;SDS011;9455;54.302;10.124;2023-09-18T05:13:23;6.23;;;5.50;;
18651;SDS011;9455;54.302;10.124;2023-09-18T05:15:49;10.67;;;5.93;;
18651;SDS011;9455;54.302;10.124;2023-09-18T05:18:16;9.77;;;4.67;;
18651;SDS011;9455;54.302;10.124;2023-09-18T05:20:43;7.60;;;5.37;;
18651;SDS011;9455;54.302;10.124;2023-09-18T05:23:11;7.30;;;4.90;;
18651;SDS011;9455;54.302;10.124;2023-09-18T05:25:37;6.47;;;5.20;;
18651;SDS011;9455;54.302;10.124;2023-09-18T05:28:07;7.17;;;5.37;;
18651;SDS011;9455;54.302;10.124;2023-09-18T05:30:35;10.67;;;5.90;;
18651;SDS011;9455;54.302;10.124;2023-09-18T05:33:03;6.70;;;5.03;;
18651;SDS011;9455;54.302;10.124;2023-09-18T05:35:31;7.10;;;5.67;;
18651;SDS011;9455;54.302;10.124;2023-09-18T05:37:58;11.57;;;6.10;;
18651;SDS011;9455;54.302;10.124;2023-09-18T05:40:26;8.20;;;5.87;;
18651;SDS011;9455;54.302;10.124;2023-09-18T05:42:53;9.93;;;5.47;;
18651;SDS011;9455;54.302;10.124;2023-09-18T05:45:21;11.83;;;5.73;;
18651;SDS011;9455;54.302;10.124;2023-09-18T05:47:48;8.13;;;5.50;;
18651;SDS011;9455;54.302;10.124;2023-09-18T05:50:15;8.83;;;5.03;;
18651;SDS011;9455;54.302;10.124;2023-09-18T05:52:42;7.30;;;4.87;;
18651;SDS011;9455;54.302;10.124;2023-09-18T05:55:09;6.83;;;5.00;;
18651;SDS011;9455;54.302;10.124;2023-09-18T05:57:37;10.53;;;5.53;;
18651;SDS011;9455;54.302;10.124;2023-09-18T06:00:05;12.93;;;6.97;;
18651;SDS011;9455;54.302;10.124;2023-09-18T06:02:32;8.90;;;6.03;;
18651;SDS011;9455;54.302;10.124;2023-09-18T06:04:59;10.00;;;5.93;;
18651;SDS011;9455;54.302;10.124;2023-09-18T06:07:31;8.83;;;5.37;;
18651;SDS011;9455;54.302;10.124;2023-09-18T06:09:57;7.23;;;4.90;;
18651;SDS011;9455;54.302;10.124;2023-09-18T06:12:24;19.03;;;5.60;;
18651;SDS011;9455;54.302;10.124;2023-09-18T06:14:52;14.50;;;6.00;;
18651;SDS011;9455;54.302;10.124;2023-09-18T06:17:19;6.27;;;4.90;;
18651;SDS011;9455;54.302;10.124;2023-09-18T06:19:45;7.77;;;5.20;;
18651;SDS011;9455;54.302;10.124;2023-09-18T06:22:12;6.93;;;4.60;;
18651;SDS011;9455;54.302;10.124;2023-09-18T06:24:39;6.30;;;4.63;;
18651;SDS011;9455;54.302;10.124;2023-09-18T06:27:06;10.00;;;5.00;;
18651;SDS011;9455;54.302;10.124;2023-09-18T06:29:33;5.37;;;4.20;;
18651;SDS011;9455;54.302;10.124;2023-09-18T06:32:01;5.40;;;4.80;;
18651;SDS011;9455;54.302;10.124;2023-09-18T06:34:28;9.13;;;5.43;;
18651;SDS011;9455;54.302;10.124;2023-09-18T06:36:55;6.00;;;4.80;;
18651;SDS011;9455;54.302;10.124;2023-09-18T06:39:21;5.10;;;3.93;;
18651;SDS011;9455;54.302;10.124;2023-09-18T06:41:49;8.30;;;5.20;;
18651;SDS011;9455;54.302;10.124;2023-09-18T06:44:15;5.57;;;4.03;;
18651;SDS011;9455;54.302;10.124;2023-09-18T06:46:42;8.13;;;4.93;;
18651;SDS011;9455;54.302;10.124;2023-09-18T06:49:10;5.60;;;4.80;;
18651;SDS011;9455;54.302;10.124;2023-09-18T06:51:36;5.87;;;4.70;;
18651;SDS011;9455;54.302;10.124;2023-09-18T06:54:04;5.33;;;4.30;;
18651;SDS011;9455;54.302;10.124;2023-09-18T06:56:31;3.80;;;3.47;;
18651;SDS011;9455;54.302;10.124;2023-09-18T06:58:57;6.43;;;4.70;;
18651;SDS011;9455;54.302;10.124;2023-09-18T07:01:24;5.60;;;4.97;;
18651;SDS011;9455;54.302;10.124;2023-09-18T07:03:51;6.93;;;4.67;;
18651;SDS011;9455;54.302;10.124;2023-09-18T07:06:19;7.20;;;4.70;;
18651;SDS011;9455;54.302;10.124;2023-09-18T07:08:46;6.77;;;4.43;;
18651;SDS011;9455;54.302;10.124;2023-09-18T07:11:14;5.77;;;4.10;;
18651;SDS011;9455;54.302;10.124;2023-09-18T07:13:41;6.03;;;4.47;;
18651;SDS011;9455;54.302;10.124;2023-09-18T07:16:08;6.40;;;5.10;;
18651;SDS011;9455;54.302;10.124;2023-09-18T07:18:35;6.20;;;4.70;;
18651;SDS011;9455;54.302;10.124;2023-09-18T07:21:02;5.60;;;4.70;;
18651;SDS011;9455;54.302;10.124;2023-09-18T07:23:30;11.73;;;5.13;;
18651;SDS011;9455;54.302;10.124;2023-09-18T07:25:57;8.20;;;5.37;;
18651;SDS011;9455;54.302;10.124;2023-09-18T07:28:23;5.77;;;4.73;;
18651;SDS011;9455;54.302;10.124;2023-09-18T07:30:50;5.37;;;4.60;;
18651;SDS011;9455;54.302;10.124;2023-09-18T07:33:16;8.37;;;5.03;;
18651;SDS011;9455;54.302;10.124;2023-09-18T07:35:45;6.50;;;5.37;;
18651;SDS011;9455;54.302;10.124;2023-09-18T07:38:13;7.83;;;4.30;;
18651;SDS011;9455;54.302;10.124;2023-09-18T07:40:41;7.90;;;4.50;;
18651;SDS011;9455;54.302;10.124;2023-09-18T07:43:08;8.03;;;4.07;;
18651;SDS011;9455;54.302;10.124;2023-09-18T07:45:34;4.90;;;4.40;;
18651;SDS011;9455;54.302;10.124;2023-09-18T07:48:01;9.10;;;4.30;;
18651;SDS011;9455;54.302;10.124;2023-09-18T07:50:28;4.33;;;3.67;;
18651;SDS011;9455;54.302;10.124;2023-09-18T07:52:57;4.63;;;3.77;;
18651;SDS011;9455;54.302;10.124;2023-09-18T07:55:23;4.87;;;4.37;;
18651;SDS011;9455;54.302;10.124;2023-09-18T07:57:52;6.70;;;4.33;;
18651;SDS011;9455;54.302;10.124;2023-09-18T08:00:19;4.60;;;4.00;;
18651;SDS011;9455;54.302;10.124;2023-09-18T08:02:47;6.90;;;4.50;;
18651;SDS011;9455;54.302;10.124;2023-09-18T08:05:15;4.03;;;3.63;;
18651;SDS011;9455;54.302;10.124;2023-09-18T08:07:42;5.07;;;3.73;;
18651;SDS011;9455;54.302;10.124;2023-09-18T08:10:08;11.83;;;4.67;;
18651;SDS011;9455;54.302;10.124;2023-09-18T08:12:36;4.67;;;4.27;;
18651;SDS011;9455;54.302;10.124;2023-09-18T08:15:04;6.27;;;4.30;;
18651;SDS011;9455;54.302;10.124;2023-09-18T08:17:31;5.47;;;4.13;;
18651;SDS011;9455;54.302;10.124;2023-09-18T08:19:58;7.37;;;3.70;;
18651;SDS011;9455;54.302;10.124;2023-09-18T08:22:24;5.67;;;4.27;;
18651;SDS011;9455;54.302;10.124;2023-09-18T08:24:51;4.50;;;4.10;;
18651;SDS011;9455;54.302;10.124;2023-09-18T08:27:18;4.97;;;3.60;;
18651;SDS011;9455;54.302;10.124;2023-09-18T08:29:45;6.90;;;4.23;;
18651;SDS011;9455;54.302;10.124;2023-09-18T08:32:13;4.17;;;3.40;;
18651;SDS011;9455;54.302;10.124;2023-09-18T08:34:40;5.47;;;3.93;;
18651;SDS011;9455;54.302;10.124;2023-09-18T08:37:07;4.73;;;3.80;;
18651;SDS011;9455;54.302;10.124;2023-09-18T08:39:34;10.30;;;3.70;;
18651;SDS011;9455;54.302;10.124;2023-09-18T08:42:03;3.40;;;3.20;;
18651;SDS011;9455;54.302;10.124;2023-09-18T08:44:31;5.20;;;3.83;;
18651;SDS011;9455;54.302;10.124;2023-09-18T08:46:58;4.37;;;3.70;;
18651;SDS011;9455;54.302;10.124;2023-09-18T08:49:26;4.83;;;4.07;;
18651;SDS011;9455;54.302;10.124;2023-09-18T08:51:54;4.57;;;3.53;;
18651;SDS011;9455;54.302;10.124;2023-09-18T08:54:22;5.10;;;3.90;;
18651;SDS011;9455;54.302;10.124;2023-09-18T08:56:50;3.63;;;3.30;;
18651;SDS011;9455;54.302;10.124;2023-09-18T08:59:16;4.90;;;3.53;;
18651;SDS011;9455;54.302;10.124;2023-09-18T09:01:47;4.30;;;3.80;;
18651;SDS011;9455;54.302;10.124;2023-09-18T09:04:13;4.70;;;3.30;;
18651;SDS011;9455;54.302;10.124;2023-09-18T09:06:42;4.50;;;4.10;;
18651;SDS011;9455;54.302;10.124;2023-09-18T09:09:08;4.97;;;3.90;;
18651;SDS011;9455;54.302;10.124;2023-09-18T09:11:38;8.90;;;3.80;;
18651;SDS011;9455;54.302;10.124;2023-09-18T09:14:08;3.40;;;3.10;;
18651;SDS011;9455;54.302;10.124;2023-09-18T09:16:38;6.37;;;3.63;;
18651;SDS011;9455;54.302;10.124;2023-09-18T09:19:05;4.27;;;3.87;;
18651;SDS011;9455;54.302;10.124;2023-09-18T09:21:39;7.13;;;3.77;;
18651;SDS011;9455;54.302;10.124;2023-09-18T09:24:08;3.57;;;3.13;;
18651;SDS011;9455;54.302;10.124;2023-09-18T09:26:38;7.87;;;4.23;;
18651;SDS011;9455;54.302;10.124;2023-09-18T09:29:15;3.50;;;3.20;;
18651;SDS011;9455;54.302;10.124;2023-09-18T09:31:43;5.70;;;3.17;;
18651;SDS011;9455;54.302;10.124;2023-09-18T09:34:10;3.93;;;3.40;;
18651;SDS011;9455;54.302;10.124;2023-09-18T09:36:50;8.07;;;3.67;;
18651;SDS011;9455;54.302;10.124;2023-09-18T09:39:20;5.30;;;2.93;;
18651;SDS011;9455;54.302;10.124;2023-09-18T09:41:49;3.23;;;2.93;;
18651;SDS011;9455;54.302;10.124;2023-09-18T09:44:17;3.23;;;3.00;;
18651;SDS011;9455;54.302;10.124;2023-09-18T09:46:46;3.43;;;3.10;;
18651;SDS011;9455;54.302;10.124;2023-09-18T09:49:13;4.17;;;2.63;;
18651;SDS011;9455;54.302;10.124;2023-09-18T09:51:41;3.00;;;2.80;;
18651;SDS011;9455;54.302;10.124;2023-09-18T09:54:08;7.73;;;3.30;;
18651;SDS011;9455;54.302;10.124;2023-09-18T09:56:42;3.13;;;2.83;;
18651;SDS011;9455;54.302;10.124;2023-09-18T09:59:10;8.97;;;5.30;;
18651;SDS011;9455;54.302;10.124;2023-09-18T10:01:38;4.47;;;4.03;;
18651;SDS011;9455;54.302;10.124;2023-09-18T10:04:08;3.70;;;3.40;;
18651;SDS011;9455;54.302;10.124;2023-09-18T10:06:36;12.17;;;5.17;;
18651;SDS011;9455;54.302;10.124;2023-09-18T10:09:04;6.83;;;4.50;;
18651;SDS011;9455;54.302;10.124;2023-09-18T10:11:36;4.07;;;3.63;;
18651;SDS011;9455;54.302;10.124;2023-09-18T10:14:12;2.77;;;2.67;;
18651;SDS011;9455;54.302;10.124;2023-09-18T10:16:44;4.03;;;3.47;;
18651;SDS011;9455;54.302;10.124;2023-09-18T10:19:17;7.40;;;3.53;;
18651;SDS011;9455;54.302;10.124;2023-09-18T10:21:50;3.77;;;3.47;;
18651;SDS011;9455;54.302;10.124;2023-09-18T10:24:25;4.03;;;3.17;;
18651;SDS011;9455;54.302;10.124;2023-09-18T10:26:55;6.03;;;3.90;;
18651;SDS011;9455;54.302;10.124;2023-09-18T10:29:25;3.20;;;3.00;;
18651;SDS011;9455;54.302;10.124;2023-09-18T10:31:52;3.10;;;2.90;;
18651;SDS011;9455;54.302;10.124;2023-09-18T10:34:20;4.87;;;3.10;;
18651;SDS011;9455;54.302;10.124;2023-09-18T10:36:49;3.27;;;2.73;;
18651;SDS011;9455;54.302;10.124;2023-09-18T10:39:16;3.87;;;3.30;;
18651;SDS011;9455;54.302;10.124;2023-09-18T10:41:45;3.63;;;3.17;;
18651;SDS011;9455;54.302;10.124;2023-09-18T10:44:13;7.07;;;3.07;;
18651;SDS011;9455;54.302;10.124;2023-09-18T10:46:43;4.10;;;3.07;;
18651;SDS011;9455;54.302;10.124;2023-09-18T10:49:10;4.53;;;3.40;;
18651;SDS011;9455;54.302;10.124;2023-09-18T10:51:37;3.53;;;3.20;;
18651;SDS011;9455;54.302;10.124;2023-09-18T10:54:07;3.20;;;3.00;;
18651;SDS011;9455;54.302;10.124;2023-09-18T10:56:34;3.23;;;3.03;;
18651;SDS011;9455;54.302;10.124;2023-09-18T10:59:01;5.27;;;3.10;;
18651;SDS011;9455;54.302;10.124;2023-09-18T11:01:29;3.60;;;3.30;;
18651;SDS011;9455;54.302;10.124;2023-09-18T11:04:01;4.40;;;2.50;;
18651;SDS011;9455;54.302;10.124;2023-09-18T11:06:33;3.17;;;3.00;;
18651;SDS011;9455;54.302;10.124;2023-09-18T11:09:30;3.87;;;3.40;;
18651;SDS011;9455;54.302;10.124;2023-09-18T11:12:02;3.33;;;2.77;;
18651;SDS011;9455;54.302;10.124;2023-09-18T11:14:41;3.50;;;2.97;;
18651;SDS011;9455;54.302;10.124;2023-09-18T11:22:55;3.37;;;3.07;;
18651;SDS011;9455;54.302;10.124;2023-09-18T11:25:30;4.87;;;3.20;;
18651;SDS011;9455;54.302;10.124;2023-09-18T11:28:04;5.77;;;3.17;;
18651;SDS011;9455;54.302;10.124;2023-09-18T11:30:32;3.17;;;2.87;;
18651;SDS011;9455;54.302;10.124;2023-09-18T11:33:01;3.27;;;2.73;;
18651;SDS011;9455;54.302;10.124;2023-09-18T11:35:30;3.60;;;3.27;;
18651;SDS011;9455;54.302;10.124;2023-09-18T11:38:04;6.07;;;3.20;;
18651;SDS011;9455;54.302;10.124;2023-09-18T11:44:01;4.03;;;3.13;;
18651;SDS011;9455;54.302;10.124;2023-09-18T11:46:58;6.50;;;3.07;;
18651;SDS011;9455;54.302;10.124;2023-09-18T11:49:25;5.37;;;3.23;;
18651;SDS011;9455;54.302;10.124;2023-09-18T11:51:59;7.80;;;2.87;;
18651;SDS011;9455;54.302;10.124;2023-09-18T11:54:27;4.97;;;3.93;;
18651;SDS011;9455;54.302;10.124;2023-09-18T11:56:54;12.37;;;3.93;;
18651;SDS011;9455;54.302;10.124;2023-09-18T11:59:32;6.90;;;3.57;;
18651;SDS011;9455;54.302;10.124;2023-09-18T12:02:00;14.63;;;4.10;;
18651;SDS011;9455;54.302;10.124;2023-09-18T12:04:31;6.10;;;2.90;;
18651;SDS011;9455;54.302;10.124;2023-09-18T12:06:59;6.30;;;3.57;;
18651;SDS011;9455;54.302;10.124;2023-09-18T12:09:28;7.50;;;4.73;;
18651;SDS011;9455;54.302;10.124;2023-09-18T12:11:55;6.73;;;3.63;;
18651;SDS011;9455;54.302;10.124;2023-09-18T12:14:22;8.03;;;4.27;;
18651;SDS011;9455;54.302;10.124;2023-09-18T12:16:49;8.77;;;3.83;;
18651;SDS011;9455;54.302;10.124;2023-09-18T12:19:16;5.60;;;3.30;;
18651;SDS011;9455;54.302;10.124;2023-09-18T12:21:45;4.47;;;3.20;;
18651;SDS011;9455;54.302;10.124;2023-09-18T12:24:15;4.50;;;3.60;;
18651;SDS011;9455;54.302;10.124;2023-09-18T12:26:46;3.43;;;3.13;;
18651;SDS011;9455;54.302;10.124;2023-09-18T12:29:13;8.63;;;3.73;;
18651;SDS011;9455;54.302;10.124;2023-09-18T12:31:40;3.87;;;3.57;;
18651;SDS011;9455;54.302;10.124;2023-09-18T12:34:13;7.47;;;4.50;;
18651;SDS011;9455;54.302;10.124;2023-09-18T12:36:41;6.20;;;3.33;;
18651;SDS011;9455;54.302;10.124;2023-09-18T12:39:09;3.10;;;2.90;;
18651;SDS011;9455;54.302;10.124;2023-09-18T12:41:37;3.70;;;3.23;;
18651;SDS011;9455;54.302;10.124;2023-09-18T12:44:05;4.87;;;3.50;;
18651;SDS011;9455;54.302;10.124;2023-09-18T12:46:32;5.53;;;3.10;;
18651;SDS011;9455;54.302;10.124;2023-09-18T12:49:14;6.83;;;3.30;;
18651;SDS011;9455;54.302;10.124;2023-09-18T12:51:41;3.97;;;3.63;;
18651;SDS011;9455;54.302;10.124;2023-09-18T12:54:09;4.90;;;3.20;;
18651;SDS011;9455;54.302;10.124;2023-09-18T12:56:42;8.50;;;3.63;;
18651;SDS011;9455;54.302;10.124;2023-09-18T12:59:09;9.03;;;3.70;;
18651;SDS011;9455;54.302;10.124;2023-09-18T13:01:38;5.80;;;3.67;;
18651;SDS011;9455;54.302;10.124;2023-09-18T13:04:05;7.70;;;4.03;;
18651;SDS011;9455;54.302;10.124;2023-09-18T13:06:31;3.50;;;3.00;;
18651;SDS011;9455;54.302;10.124;2023-09-18T13:11:53;8.23;;;3.37;;
18651;SDS011;9455;54.302;10.124;2023-09-18T13:14:21;3.67;;;2.87;;
18651;SDS011;9455;54.302;10.124;2023-09-18T13:16:48;5.93;;;3.70;;
18651;SDS011;9455;54.302;10.124;2023-09-18T13:19:14;3.70;;;3.17;;
18651;SDS011;9455;54.302;10.124;2023-09-18T13:21:46;6.07;;;4.70;;
18651;SDS011;9455;54.302;10.124;2023-09-18T13:24:23;5.70;;;4.10;;
18651;SDS011;9455;54.302;10.124;2023-09-18T13:26:52;5.47;;;3.37;;
18651;SDS011;9455;54.302;10.124;2023-09-18T13:29:21;4.90;;;3.50;;
18651;SDS011;9455;54.302;10.124;2023-09-18T13:31:47;6.23;;;3.67;;
18651;SDS011;9455;54.302;10.124;2023-09-18T13:34:15;3.80;;;3.37;;
18651;SDS011;9455;54.302;10.124;2023-09-18T13:36:43;5.80;;;3.00;;
18651;SDS011;9455;54.302;10.124;2023-09-18T13:39:10;4.00;;;3.03;;
18651;SDS011;9455;54.302;10.124;2023-09-18T13:41:37;3.60;;;2.90;;
18651;SDS011;9455;54.302;10.124;2023-09-18T13:44:05;7.07;;;2.80;;
18651;SDS011;9455;54.302;10.124;2023-09-18T13:46:32;4.97;;;2.97;;
18651;SDS011;9455;54.302;10.124;2023-09-18T13:49:01;4.80;;;2.60;;
18651;SDS011;9455;54.302;10.124;2023-09-18T13:51:28;6.13;;;3.13;;
18651;SDS011;9455;54.302;10.124;2023-09-18T13:53:55;8.27;;;3.10;;
18651;SDS011;9455;54.302;10.124;2023-09-18T13:56:22;6.53;;;2.97;;
18651;SDS011;9455;54.302;10.124;2023-09-18T13:58:52;6.33;;;3.70;;
18651;SDS011;9455;54.302;10.124;2023-09-18T14:01:22;3.70;;;3.30;;
18651;SDS011;9455;54.302;10.124;2023-09-18T14:03:50;4.87;;;3.10;;
18651;SDS011;9455;54.302;10.124;2023-09-18T14:06:16;3.07;;;2.87;;
18651;SDS011;9455;54.302;10.124;2023-09-18T14:08:43;4.40;;;3.33;;
18651;SDS011;9455;54.302;10.124;2023-09-18T14:11:10;12.73;;;3.37;;
18651;SDS011;9455;54.302;10.124;2023-09-18T14:13:37;3.97;;;3.57;;
18651;SDS011;9455;54.302;10.124;2023-09-18T14:16:03;4.50;;;3.57;;
18651;SDS011;9455;54.302;10.124;2023-09-18T14:18:32;6.90;;;4.13;;
18651;SDS011;9455;54.302;10.124;2023-09-18T14:20:59;6.17;;;4.30;;
18651;SDS011;9455;54.302;10.124;2023-09-18T14:23:25;8.90;;;3.97;;
18651;SDS011;9455;54.302;10.124;2023-09-18T14:25:52;10.33;;;3.83;;
18651;SDS011;9455;54.302;10.124;2023-09-18T14:28:19;5.60;;;3.23;;
18651;SDS011;9455;54.302;10.124;2023-09-18T14:30:46;4.17;;;3.43;;
18651;SDS011;9455;54.302;10.124;2023-09-18T14:33:12;5.13;;;2.80;;
18651;SDS011;9455;54.302;10.124;2023-09-18T14:35:41;6.97;;;3.40;;
18651;SDS011;9455;54.302;10.124;2023-09-18T14:38:07;7.13;;;3.83;;
18651;SDS011;9455;54.302;10.124;2023-09-18T14:40:34;7.93;;;4.13;;
18651;SDS011;9455;54.302;10.124;2023-09-18T14:43:01;7.67;;;3.70;;
18651;SDS011;9455;54.302;10.124;2023-09-18T14:45:28;5.93;;;3.37;;
18651;SDS011;9455;54.302;10.124;2023-09-18T14:47:55;10.07;;;4.70;;
18651;SDS011;9455;54.302;10.124;2023-09-18T14:50:22;6.80;;;3.23;;
18651;SDS011;9455;54.302;10.124;2023-09-18T14:52:49;5.07;;;3.67;;
18651;SDS011;9455;54.302;10.124;2023-09-18T14:55:16;4.47;;;2.63;;
18651;SDS011;9455;54.302;10.124;2023-09-18T14:57:43;4.43;;;3.10;;
18651;SDS011;9455;54.302;10.124;2023-09-18T15:00:10;4.17;;;3.47;;